To NAV CANADA Home Page Login to a new session Search on AWWS site Feedback and Comments Disclaimer Vers la page française équivalente Tips FAQ What's new on the site To the Forecasts and Observations / NOTAM section To "File a Flight Plan" website Publications and other links Update of the User's profile FIC Telephone Numbers My Weather Data Folder Route Weather Data Regional Weather Data Local Weather Data To the Forecasts and Observations / NOTAM section
Request Generated 04/24/2014 at 05:47:07 UTC . Weather information available at that time is displayed.

METAR/TAF

GRANDE PRAIRIE/AB    

METAR CYQU 240500Z 29007KT 25SM VCSH BKN050 OVC073 01/M01 A2969 RMK
SC5AC3 SLP083=
METAR CYQU 240400Z 30009KT 25SM OVC050 01/M01 A2969 RMK SC8 SLP082=
METAR CYQU 240300Z 31013KT 25SM OVC045 02/M01 A2967 RMK SC8 SLP076=

TAF CYQU 240038Z 2401/2413 31015G25KT P6SM SCT015 BKN060 TEMPO
2401/2408 P6SM -SHRASN BKN015
BECMG 2401/2403 29012KT
FM240800 28008KT P6SM SCT015 BKN040 TEMPO 2408/2412 4SM -SHSN BR
BKN015
FM241200 28006KT P6SM SCT040 BKN140
RMK NXT FCST BY 240700Z=
Your time UTC time
Weather data provided by Environment Canada and NAV CANADA